createdAt,value
2022-10-11T00:00:02.575Z,6.2
2022-10-11T00:02:07.876Z,6.2
2022-10-11T00:04:10.290Z,6.2
2022-10-11T00:06:12.530Z,6.3
2022-10-11T00:07:14.868Z,6.2
2022-10-11T00:09:16.267Z,6.2
2022-10-11T00:11:17.706Z,6.4
2022-10-11T00:13:19.142Z,6.3
2022-10-11T00:15:23.880Z,6.2
2022-10-11T00:17:25.292Z,6.1
2022-10-11T00:21:28.085Z,6.1
2022-10-11T00:23:29.465Z,6.1
2022-10-11T00:25:30.869Z,6
2022-10-11T00:27:32.235Z,6
2022-10-11T00:29:36.942Z,6.1
2022-10-11T00:31:38.350Z,6.1
2022-10-11T00:33:39.766Z,6.1
2022-10-11T00:35:41.130Z,6.2
2022-10-11T00:37:42.538Z,6.1
2022-10-11T00:39:43.927Z,6.1
2022-10-11T00:41:45.324Z,6.2
2022-10-11T00:43:50.029Z,6
2022-10-11T00:45:51.444Z,6.1
2022-10-11T00:47:52.858Z,6.1
2022-10-11T00:49:54.306Z,6
2022-10-11T00:51:55.704Z,5.9
2022-10-11T00:53:57.104Z,5.9
2022-10-11T00:55:58.508Z,5.9
2022-10-11T00:58:03.225Z,6.2
2022-10-11T01:00:04.598Z,6.2
2022-10-11T01:02:06.017Z,6
2022-10-11T01:03:08.349Z,6
2022-10-11T01:05:28.014Z,6.1
2022-10-11T01:07:11.127Z,6.1
2022-10-11T01:09:12.570Z,5.9
2022-10-11T01:11:18.048Z,5.9
2022-10-11T01:13:19.457Z,6
2022-10-11T01:15:20.873Z,6
2022-10-11T01:17:22.266Z,6
2022-10-11T01:19:23.643Z,5.8
2022-10-11T01:21:25.051Z,5.7
2022-10-11T01:23:26.460Z,5.8
2022-10-11T01:25:31.186Z,5.9
2022-10-11T01:27:32.558Z,5.9
2022-10-11T01:29:33.958Z,5.8
2022-10-11T01:33:36.737Z,5.6
2022-10-11T01:35:38.153Z,5.5
2022-10-11T01:37:39.551Z,5.6
2022-10-11T01:43:47.165Z,5.8
2022-10-11T01:45:48.563Z,5.7
2022-10-11T01:47:49.957Z,5.7
2022-10-11T01:49:51.354Z,5.8
2022-10-11T01:51:52.764Z,5.7
2022-10-11T01:53:57.497Z,5.6
2022-10-11T01:55:58.848Z,5.8
2022-10-11T01:58:00.275Z,6
2022-10-11T02:00:23.168Z,6
2022-10-11T02:04:25.934Z,6
2022-10-11T02:06:30.665Z,5.8
2022-10-11T02:08:32.062Z,5.9
2022-10-11T02:10:33.456Z,6.1
2022-10-11T02:12:34.898Z,6
2022-10-11T02:14:36.274Z,5.9
2022-10-11T02:16:37.685Z,5.9
2022-10-11T02:18:39.078Z,5.9
2022-10-11T02:20:43.797Z,5.8
2022-10-11T02:22:45.217Z,5.8
2022-10-11T02:26:48.072Z,5.7
2022-10-11T02:28:49.569Z,5.9
2022-10-11T02:30:50.907Z,5.8
2022-10-11T02:32:52.285Z,5.5
2022-10-11T02:34:57.015Z,5.6
2022-10-11T02:36:58.514Z,5.6
2022-10-11T02:38:59.795Z,5.7
2022-10-11T02:41:01.225Z,5.7
2022-10-11T02:43:02.587Z,5.7
2022-10-11T02:53:14.442Z,5.7
2022-10-11T02:54:16.802Z,5.8
2022-10-11T02:56:18.190Z,5.8
2022-10-11T02:58:19.586Z,5.7
2022-10-11T03:00:20.996Z,5.8
2022-10-11T03:02:25.932Z,5.8
2022-10-11T03:04:27.219Z,5.8
2022-10-11T03:06:28.684Z,5.6
2022-10-11T03:08:30.086Z,5.5
2022-10-11T03:10:31.475Z,5.4
2022-10-11T03:12:32.890Z,5.4
2022-10-11T03:14:34.282Z,5.4
2022-10-11T03:16:39.106Z,5.4
2022-10-11T03:18:40.545Z,5.4
2022-10-11T03:20:41.931Z,5.5
2022-10-11T03:22:44.142Z,5.4
2022-10-11T03:24:45.525Z,5.4
2022-10-11T03:26:46.897Z,5.5
2022-10-11T03:28:48.378Z,5.7
2022-10-11T03:30:52.984Z,5.7
2022-10-11T03:32:55.378Z,5.6
2022-10-11T03:36:58.178Z,5.4
2022-10-11T03:39:00.579Z,5.3
2022-10-11T03:41:01.921Z,5.3
2022-10-11T03:43:03.352Z,5.4
2022-10-11T03:45:08.126Z,5.6
2022-10-11T03:47:09.552Z,5.6
2022-10-11T03:49:10.890Z,5.5
2022-10-11T03:50:13.263Z,5.5
2022-10-11T03:52:14.667Z,5.5
2022-10-11T03:54:16.047Z,5.6
2022-10-11T03:56:17.470Z,5.6
2022-10-11T03:58:22.155Z,5.5
2022-10-11T04:00:23.599Z,5.4
2022-10-11T04:02:25.082Z,5.4
2022-10-11T04:04:26.547Z,5.3
2022-10-11T04:06:27.930Z,5.4
2022-10-11T04:08:29.323Z,5.4
2022-10-11T04:10:30.711Z,5.4
2022-10-11T04:16:38.265Z,5.2
2022-10-11T04:18:39.671Z,5.1
2022-10-11T04:20:41.089Z,5.1
2022-10-11T04:24:43.889Z,5.2
2022-10-11T04:26:48.615Z,5.3
2022-10-11T04:28:50.106Z,5.3
2022-10-11T04:30:51.423Z,5.2
2022-10-11T04:34:54.206Z,4.9
2022-10-11T04:38:57.928Z,4.9
2022-10-11T04:46:09.963Z,5
2022-10-11T04:48:10.949Z,5.1
2022-10-11T04:50:12.377Z,5.2
2022-10-11T04:52:13.829Z,5.3
2022-10-11T04:54:18.535Z,5.1
2022-10-11T04:56:19.941Z,5
2022-10-11T04:58:21.335Z,4.8
2022-10-11T05:00:22.722Z,4.7
2022-10-11T05:02:24.185Z,4.6
2022-10-11T05:04:25.506Z,4.7
2022-10-11T05:06:26.915Z,4.7
2022-10-11T05:08:31.585Z,4.7
2022-10-11T05:10:33.014Z,4.5
2022-10-11T05:12:34.476Z,4.7
2022-10-11T05:14:35.843Z,5
2022-10-11T05:16:37.298Z,5.2
2022-10-11T05:18:38.727Z,4.9
2022-10-11T05:20:40.123Z,4.6
2022-10-11T05:24:46.164Z,4.7
2022-10-11T05:26:47.543Z,4.9
2022-10-11T05:28:49.032Z,5.1
2022-10-11T05:30:50.427Z,5.1
2022-10-11T05:32:51.873Z,5
2022-10-11T05:34:53.254Z,4.7
2022-10-11T05:36:57.962Z,4.7
2022-10-11T05:38:59.354Z,4.7
2022-10-11T05:41:00.809Z,4.6
2022-10-11T05:43:23.996Z,4.3
2022-10-11T05:45:25.371Z,4.2
2022-10-11T05:47:26.738Z,4.1
2022-10-11T05:49:31.621Z,4.1
2022-10-11T05:51:33.671Z,4.2
2022-10-11T05:53:35.084Z,4.3
2022-10-11T05:55:36.560Z,4.3
2022-10-11T05:57:38.026Z,4.5
2022-10-11T05:59:39.479Z,4.6
2022-10-11T06:01:40.883Z,4.6
2022-10-11T06:03:45.613Z,4.9
2022-10-11T06:05:46.993Z,4.9
2022-10-11T06:07:48.343Z,4.8
2022-10-11T06:09:49.711Z,4.9
2022-10-11T06:11:51.079Z,5.1
2022-10-11T06:13:52.549Z,5.2
2022-10-11T06:22:01.757Z,5.6
2022-10-11T06:24:03.096Z,5.6
2022-10-11T06:30:07.343Z,5.8
2022-10-11T06:32:12.095Z,6.1
2022-10-11T06:34:13.486Z,6.5
2022-10-11T06:36:14.947Z,7.3
2022-10-11T06:39:18.676Z,8.5
2022-10-11T06:41:20.046Z,9
2022-10-11T06:43:21.447Z,9.4
2022-10-11T06:45:26.208Z,8.6
2022-10-11T06:47:27.620Z,8.6
2022-10-11T06:49:29.015Z,9.1
2022-10-11T06:51:30.435Z,9.5
2022-10-11T06:53:31.803Z,9.6
2022-10-11T06:55:33.207Z,10.2
2022-10-11T06:59:39.325Z,10.7
2022-10-11T07:01:40.783Z,11
2022-10-11T07:03:42.137Z,11.3
2022-10-11T07:05:43.509Z,12
2022-10-11T07:07:44.905Z,12
2022-10-11T07:09:46.309Z,11.3
2022-10-11T07:11:47.716Z,10.3
2022-10-11T07:13:52.457Z,9.7
2022-10-11T07:15:53.942Z,9.6
2022-10-11T07:17:55.350Z,9.4
2022-10-11T07:19:57.645Z,9.3
2022-10-11T07:21:59.016Z,9.3
2022-10-11T07:24:00.463Z,9.6
2022-10-11T07:26:02.079Z,10.1
2022-10-11T07:28:06.624Z,10.6
2022-10-11T07:30:08.019Z,10.9
2022-10-11T07:32:09.505Z,11
2022-10-11T07:33:11.820Z,11.3
2022-10-11T07:35:13.220Z,11.4
2022-10-11T07:37:14.648Z,11.9
2022-10-11T07:39:16.066Z,11.3
2022-10-11T07:41:20.787Z,10.4
2022-10-11T07:43:22.208Z,10.1
2022-10-11T07:45:23.651Z,9.9
2022-10-11T07:47:25.078Z,10
2022-10-11T07:49:26.504Z,10.5
2022-10-11T07:51:27.950Z,11.2
2022-10-11T07:53:29.492Z,11
2022-10-11T07:55:34.136Z,11.1
2022-10-11T07:57:35.510Z,11.4
2022-10-11T07:59:36.938Z,11.8
2022-10-11T08:01:38.372Z,12.4
2022-10-11T08:03:39.800Z,12.2
2022-10-11T08:05:41.213Z,12.2
2022-10-11T08:07:42.644Z,12.5
2022-10-11T08:09:48.304Z,13
2022-10-11T08:11:49.749Z,12.7
2022-10-11T08:13:51.350Z,12.2
2022-10-11T08:15:52.607Z,12.4
2022-10-11T08:17:54.043Z,12.5
2022-10-11T08:19:55.477Z,12.9
2022-10-11T08:21:56.881Z,13.8
2022-10-11T08:24:01.787Z,13.4
2022-10-11T08:26:03.418Z,13.2
2022-10-11T08:28:04.482Z,12.9
2022-10-11T08:29:06.880Z,12.6
2022-10-11T08:31:08.272Z,12.6
2022-10-11T08:33:09.726Z,12.4
2022-10-11T08:35:11.166Z,12.4
2022-10-11T08:37:17.432Z,12.7
2022-10-11T08:39:18.913Z,12.8
2022-10-11T08:41:20.287Z,13.3
2022-10-11T08:43:21.755Z,14.3
2022-10-11T08:45:23.172Z,14.8
2022-10-11T08:47:24.598Z,15.7
2022-10-11T08:49:26.033Z,16.4
2022-10-11T08:51:30.758Z,16.6
2022-10-11T08:53:32.186Z,16.9
2022-10-11T08:55:33.611Z,17
2022-10-11T08:57:35.063Z,17.2
2022-10-11T08:59:36.520Z,18.2
2022-10-11T09:01:38.016Z,18.4
2022-10-11T09:03:39.365Z,18.3
2022-10-11T09:05:44.092Z,18.4
2022-10-11T09:07:45.571Z,18.5
2022-10-11T09:09:46.976Z,18.6
2022-10-11T09:11:48.453Z,18.7
2022-10-11T09:13:49.850Z,19.4
2022-10-11T09:15:51.298Z,19
2022-10-11T09:17:52.736Z,18.9
2022-10-11T09:21:58.873Z,18.1
2022-10-11T09:24:00.293Z,17.8
2022-10-11T09:26:23.311Z,17.2
2022-10-11T09:28:25.179Z,17.5
2022-10-11T09:32:32.165Z,18.1
2022-10-11T09:34:33.581Z,17.9
2022-10-11T09:36:35.002Z,17.7
2022-10-11T09:40:38.920Z,17.2
2022-10-11T09:42:41.421Z,17.1
2022-10-11T09:46:47.538Z,17.1
2022-10-11T09:48:48.965Z,16.9
2022-10-11T09:50:50.395Z,16.4
2022-10-11T09:58:56.056Z,15.8
2022-10-11T10:01:06.592Z,15.3
2022-10-11T10:03:02.197Z,15.3
2022-10-11T10:05:03.638Z,15.2
2022-10-11T10:07:05.016Z,15.2
2022-10-11T10:09:06.456Z,15.2
2022-10-11T10:11:07.840Z,15.2
2022-10-11T10:13:09.272Z,15.4
2022-10-11T10:15:14.034Z,15.2
2022-10-11T10:17:15.440Z,15.3
2022-10-11T10:19:16.856Z,15.5
2022-10-11T10:22:20.623Z,15.5
2022-10-11T10:24:22.055Z,15.5
2022-10-11T10:26:23.446Z,15.8
2022-10-11T10:28:28.274Z,15.7
2022-10-11T10:30:34.508Z,15.8
2022-10-11T10:32:31.015Z,15.7
2022-10-11T10:34:32.423Z,16
2022-10-11T10:36:33.832Z,16.2
2022-10-11T10:38:35.258Z,16.1
2022-10-11T10:40:36.642Z,16.3
2022-10-11T10:42:41.397Z,15.9
2022-10-11T10:44:42.787Z,15.8
2022-10-11T10:46:45.224Z,16
2022-10-11T10:49:28.358Z,16
2022-10-11T10:50:47.026Z,15.7
2022-10-11T10:52:48.455Z,15.7
2022-10-11T10:54:49.850Z,15.9
2022-10-11T10:56:54.558Z,15.7
2022-10-11T10:58:56.019Z,15.7
2022-10-11T11:00:57.392Z,15.8
2022-10-11T11:02:58.922Z,16.3
2022-10-11T11:07:01.689Z,16.4
2022-10-11T11:09:03.072Z,16.1
2022-10-11T11:11:07.788Z,16.4
2022-10-11T11:13:09.217Z,16.2
2022-10-11T11:15:10.611Z,16.3
2022-10-11T11:18:14.377Z,16.5
2022-10-11T11:20:15.780Z,16.7
2022-10-11T11:22:17.245Z,16.5
2022-10-11T11:24:21.991Z,16.3
2022-10-11T11:26:23.320Z,16.4
2022-10-11T11:32:27.552Z,17
2022-10-11T11:34:28.973Z,16.5
2022-10-11T11:36:30.405Z,16.2
2022-10-11T11:38:35.119Z,16.9
2022-10-11T11:40:36.539Z,17
2022-10-11T11:42:37.908Z,17.3
2022-10-11T11:44:39.335Z,17.5
2022-10-11T11:46:40.751Z,17.1
2022-10-11T11:48:42.192Z,16.3
2022-10-11T11:50:43.513Z,16
2022-10-11T11:52:48.271Z,15.9
2022-10-11T11:54:49.627Z,15.9
2022-10-11T11:56:51.070Z,16
2022-10-11T11:58:52.465Z,15.9
2022-10-11T12:00:53.880Z,15.9
2022-10-11T12:02:55.280Z,16.2
2022-10-11T12:07:15.426Z,15.8
2022-10-11T12:09:02.836Z,16
2022-10-11T12:12:06.581Z,15.9
2022-10-11T12:14:07.992Z,15.9
2022-10-11T12:16:09.410Z,15.4
2022-10-11T12:20:16.137Z,15.4
2022-10-11T12:22:17.527Z,15.4
2022-10-11T12:24:18.936Z,15.3
2022-10-11T12:26:20.346Z,15.3
2022-10-11T12:28:21.933Z,15.1
2022-10-11T12:30:23.201Z,15.2
2022-10-11T12:32:24.586Z,15.5
2022-10-11T12:34:29.342Z,15.8
2022-10-11T12:36:30.663Z,15.7
2022-10-11T12:38:32.094Z,15.5
2022-10-11T12:40:33.473Z,15.6
2022-10-11T12:42:34.889Z,15.9
2022-10-11T12:44:36.316Z,16.3
2022-10-11T12:46:37.705Z,16.4
2022-10-11T12:48:42.425Z,16.9
2022-10-11T12:50:43.861Z,17
2022-10-11T12:52:46.211Z,16.8
2022-10-11T12:54:47.635Z,16.4
2022-10-11T12:56:49.088Z,16.3
2022-10-11T12:58:50.426Z,16.4
2022-10-11T13:00:51.924Z,16.9
2022-10-11T13:02:56.608Z,16.7
2022-10-11T13:04:57.968Z,16.6
2022-10-11T13:07:03.182Z,16.2
2022-10-11T13:09:22.506Z,15.7
2022-10-11T13:11:23.904Z,15.6
2022-10-11T13:13:26.462Z,15.3
2022-10-11T13:15:31.059Z,15
2022-10-11T13:17:38.006Z,15
2022-10-11T13:19:33.988Z,15
2022-10-11T13:21:36.339Z,15
2022-10-11T13:23:38.015Z,15
2022-10-11T13:25:40.228Z,14.9
2022-10-11T13:27:41.618Z,14.8
2022-10-11T13:29:46.382Z,14.8
2022-10-11T13:31:48.449Z,14.8
2022-10-11T13:33:49.872Z,14.8
2022-10-11T13:35:51.260Z,14.9
2022-10-11T13:37:53.228Z,14.9
2022-10-11T13:39:54.668Z,14.9
2022-10-11T13:41:56.078Z,15
2022-10-11T13:44:00.804Z,15.1
2022-10-11T13:46:02.345Z,15.1
2022-10-11T13:48:04.476Z,15.1
2022-10-11T13:50:05.877Z,15.2
2022-10-11T13:52:07.305Z,15.4
2022-10-11T13:54:13.149Z,15.9
2022-10-11T13:56:10.150Z,19.3
2022-10-11T13:58:18.590Z,23.7
2022-10-11T14:00:16.269Z,24.4
2022-10-11T14:02:18.680Z,21.9
2022-10-11T14:03:21.061Z,19.7
2022-10-11T14:05:22.506Z,18.8
2022-10-11T14:07:23.886Z,17.1
2022-10-11T14:09:25.375Z,16.1
2022-10-11T14:11:31.085Z,19.2
2022-10-11T14:13:32.461Z,20.2
2022-10-11T14:15:33.884Z,20.6
2022-10-11T14:19:36.772Z,22
2022-10-11T14:21:38.184Z,21.7
2022-10-11T14:23:39.600Z,20.8
2022-10-11T14:25:45.881Z,17
2022-10-11T14:27:47.288Z,16.3
2022-10-11T14:30:06.071Z,15.9
2022-10-11T14:31:50.069Z,15.5
2022-10-11T14:33:51.382Z,16
2022-10-11T14:39:58.963Z,14.9
2022-10-11T14:42:00.434Z,15
2022-10-11T14:44:01.819Z,15
2022-10-11T14:46:03.439Z,14.9
2022-10-11T14:48:05.634Z,14.9
2022-10-11T14:50:07.051Z,15
2022-10-11T14:52:08.516Z,14.9
2022-10-11T14:54:14.171Z,15.1
2022-10-11T14:56:21.081Z,15.2
2022-10-11T14:58:18.787Z,15.3
2022-10-11T14:59:22.172Z,15
2022-10-11T15:01:24.330Z,14.8
2022-10-11T15:03:25.718Z,14.6
2022-10-11T15:05:31.169Z,14.5
2022-10-11T15:07:31.851Z,14.5
2022-10-11T15:09:33.281Z,14.4
2022-10-11T15:11:34.701Z,14.5
2022-10-11T15:13:36.116Z,14.6
2022-10-11T15:15:37.562Z,14.7
2022-10-11T15:17:38.952Z,14.9
2022-10-11T15:19:40.383Z,14.9
2022-10-11T15:21:45.133Z,14.9
2022-10-11T15:23:46.559Z,14.9
2022-10-11T15:25:48.033Z,14.7
2022-10-11T15:27:49.419Z,14.7
2022-10-11T15:29:50.846Z,14.7
2022-10-11T15:31:52.258Z,15.7
2022-10-11T15:33:54.171Z,17
2022-10-11T15:35:58.919Z,18.8
2022-10-11T15:38:00.347Z,19.3
2022-10-11T15:40:01.749Z,19.4
2022-10-11T15:42:03.177Z,18.1
2022-10-11T15:44:04.623Z,18
2022-10-11T15:46:06.315Z,19
2022-10-11T15:48:07.470Z,19.6
2022-10-11T15:50:12.213Z,20
2022-10-11T15:52:13.639Z,20
2022-10-11T15:54:15.097Z,20.1
2022-10-11T15:55:17.413Z,20
2022-10-11T15:57:18.875Z,19.8
2022-10-11T15:59:20.279Z,19.8
2022-10-11T16:01:21.761Z,19.9
2022-10-11T16:03:26.457Z,19.7
2022-10-11T16:05:27.893Z,19.6
2022-10-11T16:07:29.298Z,18.9
2022-10-11T16:09:30.751Z,18.1
2022-10-11T16:11:32.178Z,17.4
2022-10-11T16:13:33.580Z,17.1
2022-10-11T16:15:35.014Z,16.8
2022-10-11T16:17:39.757Z,16.3
2022-10-11T16:19:41.214Z,16.2
2022-10-11T16:21:42.591Z,15.8
2022-10-11T16:23:44.025Z,15.6
2022-10-11T16:25:45.484Z,15.3
2022-10-11T16:27:46.882Z,14.9
2022-10-11T16:29:48.307Z,14.7
2022-10-11T16:33:54.483Z,14
2022-10-11T16:35:55.877Z,13.6
2022-10-11T16:37:57.315Z,13.2
2022-10-11T16:39:58.758Z,12.8
2022-10-11T16:42:00.178Z,12.5
2022-10-11T16:44:01.624Z,12.3
2022-10-11T16:46:06.635Z,12
2022-10-11T16:48:07.837Z,11.8
2022-10-11T16:52:29.999Z,11.4
2022-10-11T16:54:31.466Z,11.3
2022-10-11T16:56:37.378Z,11
2022-10-11T16:58:37.629Z,10.8
2022-10-11T17:00:39.094Z,10.7
2022-10-11T17:02:40.475Z,10.6
2022-10-11T17:04:41.948Z,10.5
2022-10-11T17:06:43.362Z,10.4
2022-10-11T17:10:46.267Z,10.1
2022-10-11T17:12:50.983Z,9.9
2022-10-11T17:14:52.424Z,10
2022-10-11T17:16:53.864Z,10
2022-10-11T17:18:55.307Z,10.1
2022-10-11T17:20:56.770Z,10.1
2022-10-11T17:22:58.200Z,10
2022-10-11T17:24:59.647Z,10.1
2022-10-11T17:27:04.373Z,10.1
2022-10-11T17:29:05.801Z,10.1
2022-10-11T17:31:07.821Z,10
2022-10-11T17:33:08.692Z,10
2022-10-11T17:35:10.102Z,10
2022-10-11T17:37:11.548Z,9.8
2022-10-11T17:39:12.979Z,9.8
2022-10-11T17:41:17.717Z,9.9
2022-10-11T17:45:20.548Z,9.9
2022-10-11T17:46:22.937Z,9.9
2022-10-11T17:48:24.368Z,9.9
2022-10-11T17:50:25.799Z,9.8
2022-10-11T17:52:27.233Z,9.8
2022-10-11T17:54:32.019Z,9.8
2022-10-11T17:56:37.750Z,9.8
2022-10-11T18:00:36.355Z,9.7
2022-10-11T18:02:37.755Z,9.7
2022-10-11T18:04:39.208Z,9.7
2022-10-11T18:06:40.640Z,9.6
2022-10-11T18:10:47.822Z,9.6
2022-10-11T18:12:48.285Z,9.7
2022-10-11T18:14:49.707Z,9.7
2022-10-11T18:16:51.148Z,9.7
2022-10-11T18:18:52.567Z,9.6
2022-10-11T18:20:54.174Z,9.6
2022-10-11T18:22:59.599Z,9.5
2022-10-11T18:25:01.820Z,9.5
2022-10-11T18:27:04.184Z,9.4
2022-10-11T18:29:05.612Z,9.3
2022-10-11T18:31:12.384Z,9.2
2022-10-11T18:33:09.470Z,9.1
2022-10-11T18:35:11.647Z,9.1
2022-10-11T18:37:16.400Z,9.2
2022-10-11T18:39:17.859Z,9.2
2022-10-11T18:41:19.253Z,9.2
2022-10-11T18:48:26.947Z,9
2022-10-11T18:54:36.533Z,8.7
2022-10-11T18:56:37.981Z,8.7
2022-10-11T18:58:39.389Z,8.6
2022-10-11T19:00:41.447Z,8.7
2022-10-11T19:04:47.053Z,8.4
2022-10-11T19:06:48.507Z,8.3
2022-10-11T19:08:49.883Z,8.2
2022-10-11T19:10:51.312Z,8.1
2022-10-11T19:14:54.200Z,7.9
2022-10-11T19:19:00.348Z,7.8
2022-10-11T19:21:01.973Z,7.8
2022-10-11T19:23:03.290Z,7.8
2022-10-11T19:25:04.703Z,7.8
2022-10-11T19:27:06.164Z,7.8
2022-10-11T19:29:07.737Z,7.8
2022-10-11T19:35:19.693Z,7.6
2022-10-11T19:37:16.736Z,7.6
2022-10-11T19:38:19.083Z,7.6
2022-10-11T19:40:20.532Z,7.5
2022-10-11T19:42:22.039Z,7.4
2022-10-11T19:44:23.466Z,7.4
2022-10-11T19:46:49.855Z,7.3
2022-10-11T19:48:29.602Z,7.3
2022-10-11T19:50:31.016Z,7.3
2022-10-11T19:52:32.658Z,7.2
2022-10-11T19:54:33.834Z,7
2022-10-11T19:56:35.260Z,6.9
2022-10-11T19:58:36.674Z,6.8
2022-10-11T20:00:41.402Z,6.8
2022-10-11T20:02:42.791Z,6.9
2022-10-11T20:04:52.887Z,6.9
2022-10-11T20:06:45.632Z,6.8
2022-10-11T20:08:55.928Z,6.7
2022-10-11T20:10:48.477Z,6.7
2022-10-11T20:12:49.881Z,6.6
2022-10-11T20:14:54.581Z,6.6
2022-10-11T20:16:57.566Z,6.6
2022-10-11T20:18:58.939Z,6.6
2022-10-11T20:21:00.499Z,6.5
2022-10-11T20:35:33.215Z,6.2
2022-10-11T20:37:35.530Z,6.1
2022-10-11T20:39:36.954Z,6.1
2022-10-11T20:45:46.227Z,6
2022-10-11T20:47:47.636Z,5.9
2022-10-11T20:49:49.056Z,5.9
2022-10-11T20:51:50.467Z,5.8
2022-10-11T20:53:51.864Z,5.6
2022-10-11T20:55:56.583Z,5.5
2022-10-11T20:57:58.055Z,5.6
2022-10-11T20:59:59.488Z,5.6
2022-10-11T21:02:00.911Z,5.6
2022-10-11T21:04:02.418Z,5.6
2022-10-11T21:06:03.793Z,5.7
2022-10-11T21:08:05.204Z,5.5
2022-10-11T21:10:09.911Z,5.4
2022-10-11T21:12:11.317Z,5.3
2022-10-11T21:14:12.686Z,5.5
2022-10-11T21:16:14.083Z,5.7
2022-10-11T21:18:15.487Z,5.6
2022-10-11T21:20:16.871Z,5.6
2022-10-11T21:22:18.290Z,5.5
2022-10-11T21:24:23.005Z,5.4
2022-10-11T21:26:24.388Z,5.3
2022-10-11T21:28:25.828Z,5.4
2022-10-11T21:29:28.181Z,5.4
2022-10-11T21:31:33.828Z,5.4
2022-10-11T21:33:30.956Z,5.4
2022-10-11T21:35:32.336Z,5.3
2022-10-11T21:37:37.468Z,5.1
2022-10-11T21:39:38.461Z,5.1
2022-10-11T21:41:39.928Z,5.2
2022-10-11T21:43:41.331Z,5.1
2022-10-11T21:45:42.732Z,5
2022-10-11T21:47:44.134Z,5.2
2022-10-11T21:49:45.533Z,5.3
2022-10-11T21:51:50.251Z,5.2
2022-10-11T21:53:51.730Z,5.1
2022-10-11T21:55:53.133Z,4.9
2022-10-11T21:57:54.597Z,4.7
2022-10-11T21:59:56.010Z,4.7
2022-10-11T22:02:01.689Z,4.9
2022-10-11T22:03:58.906Z,5
2022-10-11T22:06:03.646Z,5
2022-10-11T22:08:05.661Z,5.1
2022-10-11T22:10:07.049Z,5.1
2022-10-11T22:12:08.427Z,4.9
2022-10-11T22:14:09.814Z,4.8
2022-10-11T22:16:11.240Z,4.7
2022-10-11T22:18:12.608Z,4.7
2022-10-11T22:20:18.058Z,4.7
2022-10-11T22:22:20.251Z,4.7
2022-10-11T22:24:21.685Z,4.8
2022-10-11T22:29:30.504Z,4.9
2022-10-11T22:33:32.995Z,4.7
2022-10-11T22:37:35.892Z,4.5
2022-10-11T22:39:37.090Z,4.5
2022-10-11T22:41:38.458Z,4.6
2022-10-11T22:43:39.857Z,4.6
2022-10-11T22:45:41.267Z,4.6
2022-10-11T22:47:46.028Z,4.5
2022-10-11T22:49:47.378Z,4.5
2022-10-11T22:51:48.781Z,4.6
2022-10-11T22:55:51.574Z,4.6
2022-10-11T22:59:55.379Z,4.4
2022-10-11T23:04:01.514Z,4.5
2022-10-11T23:06:02.796Z,4.4
2022-10-11T23:08:04.186Z,4.4
2022-10-11T23:14:09.126Z,4.5
2022-10-11T23:16:14.597Z,4.4
2022-10-11T23:20:18.347Z,4.4
2022-10-11T23:21:20.687Z,4.2
2022-10-11T23:23:22.123Z,4.3
2022-10-11T23:25:23.514Z,4.3
2022-10-11T23:27:24.928Z,4.2
2022-10-11T23:33:32.594Z,4.2
2022-10-11T23:35:33.947Z,4.3
2022-10-11T23:37:35.772Z,4.2
2022-10-11T23:39:36.894Z,4.2
2022-10-11T23:41:38.292Z,4.2
2022-10-11T23:43:42.983Z,4.2
2022-10-11T23:45:44.388Z,4.3
2022-10-11T23:47:45.828Z,4.2
2022-10-11T23:49:47.201Z,4.1
2022-10-11T23:51:48.944Z,4.1
2022-10-11T23:53:50.324Z,4.1
2022-10-11T23:55:51.681Z,4.1
2022-10-11T23:57:57.337Z,4
2022-10-11T23:59:58.827Z,4
